sensor_id;sensor_type;location;lat;lon;timestamp;P1;durP1;ratioP1;P2;durP2;ratioP2
62010;SDS011;47967;51.756;10.174;2022-11-25T05:03:11;6.75;;;2.60;;
62010;SDS011;47967;51.756;10.174;2022-11-25T05:07:14;6.78;;;2.60;;
62010;SDS011;47967;51.756;10.174;2022-11-25T05:11:20;13.85;;;2.55;;
62010;SDS011;47967;51.756;10.174;2022-11-25T05:15:24;9.43;;;2.75;;
62010;SDS011;47967;51.756;10.174;2022-11-25T05:19:29;13.55;;;2.85;;
62010;SDS011;47967;51.756;10.174;2022-11-25T05:23:32;10.32;;;2.92;;
62010;SDS011;47967;51.756;10.174;2022-11-25T05:27:34;11.60;;;3.50;;
62010;SDS011;47967;51.756;10.174;2022-11-25T05:31:41;12.13;;;3.13;;
62010;SDS011;47967;51.756;10.174;2022-11-25T05:35:53;8.00;;;2.40;;
62010;SDS011;47967;51.756;10.174;2022-11-25T05:39:58;6.55;;;2.33;;
62010;SDS011;47967;51.756;10.174;2022-11-25T05:44:03;10.30;;;2.53;;
62010;SDS011;47967;51.756;10.174;2022-11-25T05:48:07;6.80;;;2.55;;
62010;SDS011;47967;51.756;10.174;2022-11-25T05:52:11;8.43;;;2.78;;
62010;SDS011;47967;51.756;10.174;2022-11-25T05:56:22;6.35;;;2.78;;
62010;SDS011;47967;51.756;10.174;2022-11-25T06:00:42;10.02;;;3.80;;
62010;SDS011;47967;51.756;10.174;2022-11-25T06:04:44;10.52;;;2.58;;
62010;SDS011;47967;51.756;10.174;2022-11-25T06:08:49;10.17;;;2.77;;
62010;SDS011;47967;51.756;10.174;2022-11-25T06:12:51;5.95;;;2.70;;
62010;SDS011;47967;51.756;10.174;2022-11-25T06:16:54;6.55;;;2.83;;
62010;SDS011;47967;51.756;10.174;2022-11-25T06:21:03;9.18;;;2.85;;
62010;SDS011;47967;51.756;10.174;2022-11-25T06:25:08;9.70;;;2.95;;
62010;SDS011;47967;51.756;10.174;2022-11-25T06:29:13;10.35;;;3.53;;
62010;SDS011;47967;51.756;10.174;2022-11-25T06:33:20;13.77;;;3.30;;
62010;SDS011;47967;51.756;10.174;2022-11-25T06:41:27;8.68;;;2.65;;
62010;SDS011;47967;51.756;10.174;2022-11-25T06:45:30;10.60;;;3.03;;
62010;SDS011;47967;51.756;10.174;2022-11-25T06:53:36;10.70;;;3.00;;
62010;SDS011;47967;51.756;10.174;2022-11-25T07:01:43;9.57;;;2.70;;
62010;SDS011;47967;51.756;10.174;2022-11-25T07:05:46;15.30;;;3.13;;
62010;SDS011;47967;51.756;10.174;2022-11-25T07:09:49;11.93;;;3.10;;
62010;SDS011;47967;51.756;10.174;2022-11-25T07:13:53;8.63;;;2.30;;
62010;SDS011;47967;51.756;10.174;2022-11-25T07:17:57;14.38;;;2.83;;
62010;SDS011;47967;51.756;10.174;2022-11-25T07:22:00;6.87;;;2.70;;
62010;SDS011;47967;51.756;10.174;2022-11-25T07:26:04;13.90;;;3.17;;
62010;SDS011;47967;51.756;10.174;2022-11-25T07:30:09;8.93;;;2.65;;
62010;SDS011;47967;51.756;10.174;2022-11-25T07:34:32;13.05;;;3.45;;
62010;SDS011;47967;51.756;10.174;2022-11-25T07:38:35;10.70;;;3.37;;
62010;SDS011;47967;51.756;10.174;2022-11-25T07:42:46;12.43;;;2.80;;
62010;SDS011;47967;51.756;10.174;2022-11-25T07:46:51;12.25;;;2.33;;
62010;SDS011;47967;51.756;10.174;2022-11-25T07:50:53;13.18;;;3.17;;
62010;SDS011;47967;51.756;10.174;2022-11-25T07:54:56;9.53;;;2.50;;
62010;SDS011;47967;51.756;10.174;2022-11-25T07:58:59;8.47;;;2.40;;
62010;SDS011;47967;51.756;10.174;2022-11-25T08:03:03;7.32;;;2.42;;
62010;SDS011;47967;51.756;10.174;2022-11-25T08:07:05;8.93;;;2.33;;
62010;SDS011;47967;51.756;10.174;2022-11-25T08:11:09;11.60;;;2.70;;
62010;SDS011;47967;51.756;10.174;2022-11-25T08:15:13;9.68;;;2.63;;
62010;SDS011;47967;51.756;10.174;2022-11-25T08:19:18;13.00;;;2.70;;
62010;SDS011;47967;51.756;10.174;2022-11-25T08:23:20;8.65;;;3.00;;
62010;SDS011;47967;51.756;10.174;2022-11-25T08:27:23;7.53;;;2.97;;
62010;SDS011;47967;51.756;10.174;2022-11-25T08:31:26;13.33;;;2.80;;
62010;SDS011;47967;51.756;10.174;2022-11-25T08:35:32;8.25;;;2.58;;
62010;SDS011;47967;51.756;10.174;2022-11-25T08:39:38;8.40;;;3.08;;
62010;SDS011;47967;51.756;10.174;2022-11-25T08:43:57;6.72;;;2.40;;
62010;SDS011;47967;51.756;10.174;2022-11-25T08:48:01;9.65;;;2.90;;
62010;SDS011;47967;51.756;10.174;2022-11-25T08:52:05;9.50;;;3.10;;
62010;SDS011;47967;51.756;10.174;2022-11-25T08:56:08;11.55;;;2.75;;
62010;SDS011;47967;51.756;10.174;2022-11-25T09:04:15;7.00;;;2.30;;
62010;SDS011;47967;51.756;10.174;2022-11-25T09:08:19;8.97;;;2.47;;
62010;SDS011;47967;51.756;10.174;2022-11-25T09:12:22;9.15;;;3.67;;
62010;SDS011;47967;51.756;10.174;2022-11-25T09:16:24;5.83;;;2.73;;
62010;SDS011;47967;51.756;10.174;2022-11-25T09:20:28;11.35;;;2.67;;
62010;SDS011;47967;51.756;10.174;2022-11-25T09:24:34;11.10;;;2.60;;
62010;SDS011;47967;51.756;10.174;2022-11-25T09:28:37;10.48;;;3.00;;
62010;SDS011;47967;51.756;10.174;2022-11-25T09:32:40;9.53;;;2.70;;
62010;SDS011;47967;51.756;10.174;2022-11-25T09:36:42;6.43;;;3.10;;
62010;SDS011;47967;51.756;10.174;2022-11-25T09:40:48;18.07;;;3.67;;
62010;SDS011;47967;51.756;10.174;2022-11-25T09:45:02;8.63;;;2.40;;
62010;SDS011;47967;51.756;10.174;2022-11-25T09:49:47;11.55;;;2.28;;
62010;SDS011;47967;51.756;10.174;2022-11-25T09:54:04;14.25;;;2.42;;
62010;SDS011;47967;51.756;10.174;2022-11-25T09:58:17;7.30;;;2.00;;
62010;SDS011;47967;51.756;10.174;2022-11-25T10:02:26;7.93;;;2.10;;
62010;SDS011;47967;51.756;10.174;2022-11-25T10:06:36;5.28;;;1.83;;
62010;SDS011;47967;51.756;10.174;2022-11-25T10:10:45;6.70;;;1.88;;
62010;SDS011;47967;51.756;10.174;2022-11-25T10:14:50;9.75;;;2.00;;
62010;SDS011;47967;51.756;10.174;2022-11-25T10:19:01;7.65;;;1.95;;
62010;SDS011;47967;51.756;10.174;2022-11-25T10:23:14;8.55;;;2.30;;
62010;SDS011;47967;51.756;10.174;2022-11-25T10:27:30;6.03;;;2.17;;
62010;SDS011;47967;51.756;10.174;2022-11-25T10:31:44;5.80;;;2.00;;
62010;SDS011;47967;51.756;10.174;2022-11-25T10:35:48;6.93;;;1.83;;
62010;SDS011;47967;51.756;10.174;2022-11-25T10:39:54;6.88;;;2.47;;
62010;SDS011;47967;51.756;10.174;2022-11-25T10:43:56;5.67;;;1.83;;
62010;SDS011;47967;51.756;10.174;2022-11-25T10:48:09;7.13;;;2.30;;
62010;SDS011;47967;51.756;10.174;2022-11-25T10:52:21;7.80;;;2.20;;
62010;SDS011;47967;51.756;10.174;2022-11-25T10:56:25;11.98;;;2.85;;
62010;SDS011;47967;51.756;10.174;2022-11-25T11:00:30;8.27;;;2.60;;
62010;SDS011;47967;51.756;10.174;2022-11-25T11:04:35;8.73;;;2.58;;
62010;SDS011;47967;51.756;10.174;2022-11-25T11:08:54;6.97;;;2.65;;
62010;SDS011;47967;51.756;10.174;2022-11-25T11:12:58;5.97;;;2.10;;
62010;SDS011;47967;51.756;10.174;2022-11-25T11:17:02;6.75;;;2.40;;
62010;SDS011;47967;51.756;10.174;2022-11-25T11:21:07;9.13;;;2.50;;
62010;SDS011;47967;51.756;10.174;2022-11-25T11:25:27;6.82;;;2.83;;
62010;SDS011;47967;51.756;10.174;2022-11-25T11:29:31;10.15;;;2.42;;
62010;SDS011;47967;51.756;10.174;2022-11-25T11:33:35;10.23;;;2.47;;
62010;SDS011;47967;51.756;10.174;2022-11-25T11:37:46;7.43;;;2.40;;
62010;SDS011;47967;51.756;10.174;2022-11-25T11:41:54;8.07;;;2.50;;
62010;SDS011;47967;51.756;10.174;2022-11-25T11:46:07;6.47;;;2.22;;
62010;SDS011;47967;51.756;10.174;2022-11-25T11:50:22;9.45;;;2.50;;
62010;SDS011;47967;51.756;10.174;2022-11-25T11:54:31;9.45;;;2.65;;
62010;SDS011;47967;51.756;10.174;2022-11-25T11:58:40;5.53;;;2.10;;
62010;SDS011;47967;51.756;10.174;2022-11-25T12:02:57;7.05;;;2.20;;
62010;SDS011;47967;51.756;10.174;2022-11-25T12:07:05;7.78;;;2.70;;
62010;SDS011;47967;51.756;10.174;2022-11-25T12:11:15;9.30;;;2.55;;
62010;SDS011;47967;51.756;10.174;2022-11-25T12:15:23;9.82;;;2.80;;
62010;SDS011;47967;51.756;10.174;2022-11-25T12:19:35;10.40;;;3.08;;
62010;SDS011;47967;51.756;10.174;2022-11-25T12:23:43;7.68;;;2.55;;
62010;SDS011;47967;51.756;10.174;2022-11-25T12:27:58;8.10;;;2.17;;
62010;SDS011;47967;51.756;10.174;2022-11-25T12:32:09;7.95;;;2.60;;
62010;SDS011;47967;51.756;10.174;2022-11-25T12:36:30;5.10;;;2.50;;
62010;SDS011;47967;51.756;10.174;2022-11-25T12:40:36;10.85;;;2.80;;
62010;SDS011;47967;51.756;10.174;2022-11-25T12:44:47;6.80;;;2.15;;
62010;SDS011;47967;51.756;10.174;2022-11-25T12:48:55;8.80;;;2.50;;
62010;SDS011;47967;51.756;10.174;2022-11-25T12:53:00;7.95;;;2.47;;
62010;SDS011;47967;51.756;10.174;2022-11-25T12:57:18;8.80;;;2.92;;
62010;SDS011;47967;51.756;10.174;2022-11-25T13:06:15;8.27;;;2.80;;
62010;SDS011;47967;51.756;10.174;2022-11-25T13:15:20;9.57;;;3.17;;
62010;SDS011;47967;51.756;10.174;2022-11-25T13:19:29;6.05;;;2.70;;
62010;SDS011;47967;51.756;10.174;2022-11-25T13:23:47;11.27;;;4.53;;
62010;SDS011;47967;51.756;10.174;2022-11-25T13:27:55;16.92;;;4.05;;
62010;SDS011;47967;51.756;10.174;2022-11-25T13:31:59;9.60;;;3.30;;
62010;SDS011;47967;51.756;10.174;2022-11-25T13:36:04;10.43;;;3.38;;
62010;SDS011;47967;51.756;10.174;2022-11-25T13:40:18;9.48;;;3.47;;
62010;SDS011;47967;51.756;10.174;2022-11-25T13:44:21;8.38;;;3.35;;
62010;SDS011;47967;51.756;10.174;2022-11-25T13:48:28;10.23;;;3.22;;
62010;SDS011;47967;51.756;10.174;2022-11-25T13:52:40;10.35;;;3.45;;
62010;SDS011;47967;51.756;10.174;2022-11-25T13:56:44;12.50;;;3.90;;
62010;SDS011;47967;51.756;10.174;2022-11-25T14:01:19;14.48;;;4.05;;
62010;SDS011;47967;51.756;10.174;2022-11-25T14:15:02;14.07;;;5.10;;
62010;SDS011;47967;51.756;10.174;2022-11-25T14:19:29;9.48;;;4.47;;
62010;SDS011;47967;51.756;10.174;2022-11-25T14:23:58;10.10;;;3.72;;
62010;SDS011;47967;51.756;10.174;2022-11-25T14:28:26;12.23;;;4.50;;
62010;SDS011;47967;51.756;10.174;2022-11-25T14:32:36;14.13;;;6.10;;
62010;SDS011;47967;51.756;10.174;2022-11-25T14:36:44;11.95;;;4.88;;
62010;SDS011;47967;51.756;10.174;2022-11-25T14:40:53;10.45;;;4.20;;
62010;SDS011;47967;51.756;10.174;2022-11-25T14:45:01;11.45;;;3.72;;
62010;SDS011;47967;51.756;10.174;2022-11-25T14:49:05;9.27;;;3.78;;
62010;SDS011;47967;51.756;10.174;2022-11-25T14:53:27;9.30;;;3.75;;
62010;SDS011;47967;51.756;10.174;2022-11-25T14:57:32;10.18;;;4.10;;
62010;SDS011;47967;51.756;10.174;2022-11-25T15:01:38;13.60;;;6.32;;
62010;SDS011;47967;51.756;10.174;2022-11-25T15:05:53;12.60;;;5.50;;
62010;SDS011;47967;51.756;10.174;2022-11-25T15:09:57;13.27;;;5.28;;
62010;SDS011;47967;51.756;10.174;2022-11-25T15:14:00;9.37;;;3.43;;
62010;SDS011;47967;51.756;10.174;2022-11-25T15:18:05;8.25;;;3.50;;
62010;SDS011;47967;51.756;10.174;2022-11-25T15:22:16;9.27;;;3.47;;
62010;SDS011;47967;51.756;10.174;2022-11-25T15:26:25;11.35;;;4.25;;
62010;SDS011;47967;51.756;10.174;2022-11-25T15:30:29;7.93;;;3.50;;
62010;SDS011;47967;51.756;10.174;2022-11-25T15:34:33;6.03;;;3.50;;
62010;SDS011;47967;51.756;10.174;2022-11-25T15:38:37;12.27;;;3.53;;
62010;SDS011;47967;51.756;10.174;2022-11-25T15:42:44;9.95;;;3.72;;
62010;SDS011;47967;51.756;10.174;2022-11-25T15:46:54;10.07;;;5.27;;
62010;SDS011;47967;51.756;10.174;2022-11-25T15:51:02;7.72;;;3.50;;
62010;SDS011;47967;51.756;10.174;2022-11-25T15:55:15;8.05;;;2.70;;
62010;SDS011;47967;51.756;10.174;2022-11-25T15:59:37;5.15;;;3.03;;
62010;SDS011;47967;51.756;10.174;2022-11-25T16:03:46;4.40;;;2.90;;
62010;SDS011;47967;51.756;10.174;2022-11-25T16:08:00;8.20;;;4.15;;
62010;SDS011;47967;51.756;10.174;2022-11-25T16:12:22;16.00;;;7.60;;
62010;SDS011;47967;51.756;10.174;2022-11-25T16:16:25;15.17;;;7.13;;
62010;SDS011;47967;51.756;10.174;2022-11-25T16:20:29;21.15;;;12.05;;
62010;SDS011;47967;51.756;10.174;2022-11-25T16:24:34;19.13;;;10.73;;
62010;SDS011;47967;51.756;10.174;2022-11-25T16:28:40;15.45;;;8.20;;
62010;SDS011;47967;51.756;10.174;2022-11-25T16:32:50;9.40;;;3.78;;
62010;SDS011;47967;51.756;10.174;2022-11-25T16:36:53;10.13;;;4.43;;
62010;SDS011;47967;51.756;10.174;2022-11-25T16:40:57;14.00;;;9.93;;
62010;SDS011;47967;51.756;10.174;2022-11-25T16:45:00;12.15;;;7.60;;
62010;SDS011;47967;51.756;10.174;2022-11-25T16:49:03;7.50;;;4.83;;
62010;SDS011;47967;51.756;10.174;2022-11-25T16:53:09;11.32;;;5.10;;
62010;SDS011;47967;51.756;10.174;2022-11-25T16:57:15;13.65;;;7.50;;
62010;SDS011;47967;51.756;10.174;2022-11-25T17:01:21;18.55;;;10.95;;
62010;SDS011;47967;51.756;10.174;2022-11-25T17:05:26;20.83;;;12.50;;
62010;SDS011;47967;51.756;10.174;2022-11-25T17:09:30;16.65;;;9.15;;
62010;SDS011;47967;51.756;10.174;2022-11-25T17:13:34;8.80;;;4.70;;
62010;SDS011;47967;51.756;10.174;2022-11-25T17:17:42;5.75;;;3.17;;
62010;SDS011;47967;51.756;10.174;2022-11-25T17:21:47;10.93;;;4.20;;
62010;SDS011;47967;51.756;10.174;2022-11-25T17:25:50;6.87;;;4.33;;
62010;SDS011;47967;51.756;10.174;2022-11-25T17:29:54;11.23;;;5.20;;
62010;SDS011;47967;51.756;10.174;2022-11-25T17:33:58;20.05;;;9.68;;
62010;SDS011;47967;51.756;10.174;2022-11-25T17:38:01;18.02;;;9.73;;
62010;SDS011;47967;51.756;10.174;2022-11-25T17:42:13;16.92;;;9.43;;
62010;SDS011;47967;51.756;10.174;2022-11-25T17:46:19;20.90;;;10.55;;
62010;SDS011;47967;51.756;10.174;2022-11-25T17:50:23;12.15;;;6.47;;
62010;SDS011;47967;51.756;10.174;2022-11-25T17:54:26;16.17;;;7.30;;
62010;SDS011;47967;51.756;10.174;2022-11-25T17:58:29;12.90;;;6.80;;
62010;SDS011;47967;51.756;10.174;2022-11-25T18:02:33;13.30;;;7.43;;
62010;SDS011;47967;51.756;10.174;2022-11-25T18:06:36;18.88;;;9.00;;
62010;SDS011;47967;51.756;10.174;2022-11-25T18:10:38;21.87;;;9.97;;
62010;SDS011;47967;51.756;10.174;2022-11-25T18:14:41;12.65;;;5.80;;
62010;SDS011;47967;51.756;10.174;2022-11-25T18:18:46;16.73;;;8.45;;
62010;SDS011;47967;51.756;10.174;2022-11-25T18:22:49;12.68;;;8.02;;
62010;SDS011;47967;51.756;10.174;2022-11-25T18:26:52;13.13;;;7.07;;
62010;SDS011;47967;51.756;10.174;2022-11-25T18:30:55;11.57;;;6.43;;
62010;SDS011;47967;51.756;10.174;2022-11-25T18:35:07;15.48;;;7.90;;
62010;SDS011;47967;51.756;10.174;2022-11-25T18:39:19;12.20;;;5.90;;
62010;SDS011;47967;51.756;10.174;2022-11-25T18:43:22;10.23;;;5.73;;
62010;SDS011;47967;51.756;10.174;2022-11-25T18:47:27;13.88;;;6.43;;
62010;SDS011;47967;51.756;10.174;2022-11-25T18:51:31;12.67;;;5.67;;
62010;SDS011;47967;51.756;10.174;2022-11-25T18:55:34;9.43;;;5.68;;
62010;SDS011;47967;51.756;10.174;2022-11-25T18:59:37;13.47;;;6.27;;
62010;SDS011;47967;51.756;10.174;2022-11-25T19:03:39;33.37;;;17.80;;
62010;SDS011;47967;51.756;10.174;2022-11-25T19:07:44;30.10;;;15.80;;
62010;SDS011;47967;51.756;10.174;2022-11-25T19:11:48;32.35;;;19.70;;
62010;SDS011;47967;51.756;10.174;2022-11-25T19:15:53;26.17;;;17.35;;
62010;SDS011;47967;51.756;10.174;2022-11-25T19:20:00;26.75;;;17.48;;
62010;SDS011;47967;51.756;10.174;2022-11-25T19:24:08;26.43;;;17.93;;
62010;SDS011;47967;51.756;10.174;2022-11-25T19:28:13;33.47;;;19.05;;
62010;SDS011;47967;51.756;10.174;2022-11-25T19:32:18;23.88;;;15.40;;
62010;SDS011;47967;51.756;10.174;2022-11-25T19:36:24;22.75;;;13.85;;
62010;SDS011;47967;51.756;10.174;2022-11-25T19:40:29;20.92;;;12.23;;
62010;SDS011;47967;51.756;10.174;2022-11-25T19:44:39;25.50;;;15.35;;
62010;SDS011;47967;51.756;10.174;2022-11-25T19:48:42;26.60;;;16.27;;
62010;SDS011;47967;51.756;10.174;2022-11-25T19:52:45;25.67;;;15.20;;
62010;SDS011;47967;51.756;10.174;2022-11-25T19:56:51;25.77;;;16.20;;
62010;SDS011;47967;51.756;10.174;2022-11-25T20:00:53;26.08;;;15.30;;
62010;SDS011;47967;51.756;10.174;2022-11-25T20:04:59;22.30;;;12.73;;
62010;SDS011;47967;51.756;10.174;2022-11-25T20:09:02;19.20;;;12.63;;
62010;SDS011;47967;51.756;10.174;2022-11-25T20:13:09;23.85;;;15.23;;
62010;SDS011;47967;51.756;10.174;2022-11-25T20:17:14;25.40;;;14.98;;
62010;SDS011;47967;51.756;10.174;2022-11-25T20:21:29;21.33;;;13.70;;
62010;SDS011;47967;51.756;10.174;2022-11-25T20:25:35;22.30;;;12.80;;
62010;SDS011;47967;51.756;10.174;2022-11-25T20:29:45;19.75;;;12.45;;
62010;SDS011;47967;51.756;10.174;2022-11-25T20:33:48;21.02;;;13.32;;
62010;SDS011;47967;51.756;10.174;2022-11-25T20:37:51;18.03;;;11.73;;
62010;SDS011;47967;51.756;10.174;2022-11-25T20:41:58;18.73;;;12.23;;
62010;SDS011;47967;51.756;10.174;2022-11-25T20:46:02;24.03;;;14.77;;
62010;SDS011;47967;51.756;10.174;2022-11-25T20:50:06;24.45;;;14.82;;
62010;SDS011;47967;51.756;10.174;2022-11-25T20:54:09;23.42;;;13.55;;
62010;SDS011;47967;51.756;10.174;2022-11-25T20:58:18;23.70;;;14.35;;
62010;SDS011;47967;51.756;10.174;2022-11-25T21:02:24;27.30;;;16.95;;
62010;SDS011;47967;51.756;10.174;2022-11-25T21:06:27;26.30;;;17.23;;
62010;SDS011;47967;51.756;10.174;2022-11-25T21:10:41;29.42;;;18.63;;
62010;SDS011;47967;51.756;10.174;2022-11-25T21:14:44;28.23;;;18.25;;
62010;SDS011;47967;51.756;10.174;2022-11-25T21:18:48;31.77;;;18.33;;
62010;SDS011;47967;51.756;10.174;2022-11-25T21:22:52;33.30;;;20.05;;
62010;SDS011;47967;51.756;10.174;2022-11-25T21:26:59;29.38;;;18.58;;
62010;SDS011;47967;51.756;10.174;2022-11-25T21:31:09;25.33;;;16.95;;
62010;SDS011;47967;51.756;10.174;2022-11-25T21:35:16;29.65;;;17.55;;
62010;SDS011;47967;51.756;10.174;2022-11-25T21:39:24;25.40;;;15.77;;
62010;SDS011;47967;51.756;10.174;2022-11-25T21:43:30;28.95;;;16.48;;
62010;SDS011;47967;51.756;10.174;2022-11-25T21:47:34;21.88;;;14.48;;
62010;SDS011;47967;51.756;10.174;2022-11-25T21:51:38;20.47;;;14.07;;
62010;SDS011;47967;51.756;10.174;2022-11-25T21:55:41;18.95;;;12.25;;
62010;SDS011;47967;51.756;10.174;2022-11-25T21:59:44;22.00;;;11.27;;
